Time;durP1;ratioP1;P1;durP2;ratioP2;P2;SDS_P1;SDS_P2;PMS_P1;PMS_P2;Temp;Humidity;BMP_temperature;BMP_pressure;BME280_temperature;BME280_humidity;BME280_pressure;Samples;Min_cycle;Max_cycle;Signal;HPM_P1;HPM_P2
2023/08/14 00:02:55;;;;;;;7.50;7.00;;;;;;;;;;6156978;28;20266;-62
2023/08/14 00:05:56;;;;;;;8.67;7.80;;;;;;;;;;6157345;28;20234;-62
2023/08/14 00:08:57;;;;;;;7.80;7.07;;;;;;;;;;6192031;28;20339;-61
2023/08/14 00:12:01;;;;;;;7.70;7.10;;;;;;;;;;6166094;28;20196;-62
2023/08/14 00:15:02;;;;;;;8.57;7.33;;;;;;;;;;6183355;28;20259;-62
2023/08/14 00:18:03;;;;;;;7.90;7.30;;;;;;;;;;6156868;28;20187;-62
2023/08/14 00:21:04;;;;;;;8.43;7.50;;;;;;;;;;6159612;28;20212;-63
2023/08/14 00:24:05;;;;;;;7.57;6.93;;;;;;;;;;6159477;28;20219;-62
2023/08/14 00:27:06;;;;;;;9.70;7.87;;;;;;;;;;6172319;28;20296;-62
2023/08/14 00:30:07;;;;;;;7.40;6.90;;;;;;;;;;6152013;28;20200;-62
2023/08/14 00:33:08;;;;;;;8.50;7.73;;;;;;;;;;6181755;28;20216;-63
2023/08/14 00:36:09;;;;;;;8.57;7.87;;;;;;;;;;6172441;28;20192;-62
2023/08/14 00:39:10;;;;;;;8.30;7.60;;;;;;;;;;6173942;28;20251;-62
2023/08/14 00:42:11;;;;;;;8.57;7.87;;;;;;;;;;6160642;28;20228;-62
2023/08/14 00:45:12;;;;;;;8.47;7.67;;;;;;;;;;6151634;28;20188;-62
2023/08/14 00:48:14;;;;;;;8.60;7.90;;;;;;;;;;6187526;28;20194;-62
2023/08/14 00:51:16;;;;;;;8.97;8.17;;;;;;;;;;6174713;28;20348;-62
2023/08/14 00:54:17;;;;;;;9.00;8.20;;;;;;;;;;6149501;28;20208;-63
2023/08/14 00:57:18;;;;;;;8.87;8.10;;;;;;;;;;6158796;28;20212;-62
2023/08/14 01:00:19;;;;;;;12.07;8.00;;;;;;;;;;6158870;28;20200;-61
2023/08/14 01:03:20;;;;;;;9.03;8.10;;;;;;;;;;6187756;28;20211;-62
2023/08/14 01:06:21;;;;;;;8.83;8.07;;;;;;;;;;6171134;28;20232;-62
2023/08/14 01:09:22;;;;;;;8.70;8.07;;;;;;;;;;6163539;28;20222;-62
2023/08/14 01:12:37;;;;;;;8.90;8.10;;;;;;;;;;6157626;28;20211;-62
2023/08/14 01:15:47;;;;;;;8.37;7.67;;;;;;;;;;6182091;28;20204;-62
2023/08/14 01:18:49;;;;;;;8.40;7.70;;;;;;;;;;6172834;28;20196;-63
2023/08/14 01:22:04;;;;;;;8.30;7.60;;;;;;;;;;6173858;28;20223;-62
2023/08/14 01:25:24;;;;;;;8.60;7.80;;;;;;;;;;6177909;28;20189;-62
2023/08/14 01:28:25;;;;;;;8.90;8.10;;;;;;;;;;6164226;28;20284;-62
2023/08/14 01:31:26;;;;;;;8.33;7.63;;;;;;;;;;6177235;28;20275;-63
2023/08/14 01:34:27;;;;;;;8.43;7.73;;;;;;;;;;6177311;28;20188;-62
2023/08/14 01:37:51;;;;;;;8.93;8.10;;;;;;;;;;6161842;28;20500;-62
2023/08/14 01:41:01;;;;;;;9.23;7.90;;;;;;;;;;6188528;28;20193;-62
2023/08/14 01:44:08;;;;;;;8.30;7.70;;;;;;;;;;6176948;28;20208;-62
2023/08/14 01:47:12;;;;;;;10.90;9.90;;;;;;;;;;6175142;28;20283;-62
2023/08/14 01:50:14;;;;;;;10.23;9.33;;;;;;;;;;6174838;28;20186;-62
2023/08/14 01:53:16;;;;;;;10.23;9.33;;;;;;;;;;6157754;28;20263;-62
2023/08/14 01:56:17;;;;;;;10.60;9.60;;;;;;;;;;6189603;28;20193;-62
2023/08/14 01:59:20;;;;;;;10.13;9.27;;;;;;;;;;6176123;28;20196;-63
2023/08/14 02:02:21;;;;;;;8.87;8.13;;;;;;;;;;6175602;28;20219;-62
2023/08/14 02:05:22;;;;;;;10.13;9.03;;;;;;;;;;6124181;28;1180109;-62
2023/08/14 02:08:23;;;;;;;10.13;9.13;;;;;;;;;;6167208;28;20200;-62
2023/08/14 02:11:24;;;;;;;9.97;9.17;;;;;;;;;;6159984;28;20189;-62
2023/08/14 02:14:25;;;;;;;9.67;8.87;;;;;;;;;;6162139;28;20200;-62
2023/08/14 02:17:27;;;;;;;9.47;8.67;;;;;;;;;;6162942;28;20188;-63
2023/08/14 02:20:28;;;;;;;10.13;9.33;;;;;;;;;;6167362;28;20216;-62
2023/08/14 02:23:29;;;;;;;9.77;8.87;;;;;;;;;;6172165;28;20228;-62
2023/08/14 02:26:30;;;;;;;9.80;9.00;;;;;;;;;;6161966;28;20244;-62
2023/08/14 02:29:31;;;;;;;11.30;9.13;;;;;;;;;;6172174;28;20260;-62
2023/08/14 02:32:32;;;;;;;9.67;8.77;;;;;;;;;;6170755;28;20193;-62
2023/08/14 02:35:34;;;;;;;9.80;8.80;;;;;;;;;;6161523;28;20204;-62
2023/08/14 02:38:36;;;;;;;9.87;8.87;;;;;;;;;;6174033;28;20274;-62
2023/08/14 02:41:37;;;;;;;10.07;9.27;;;;;;;;;;6187379;28;20201;-62
2023/08/14 02:44:38;;;;;;;9.50;8.70;;;;;;;;;;6162094;28;20199;-62
2023/08/14 02:47:39;;;;;;;9.70;8.70;;;;;;;;;;6156831;28;20197;-62
2023/08/14 02:50:40;;;;;;;9.70;8.80;;;;;;;;;;6172343;28;20196;-62
2023/08/14 02:53:41;;;;;;;9.83;9.03;;;;;;;;;;6167638;28;20205;-62
2023/08/14 02:56:42;;;;;;;9.77;8.87;;;;;;;;;;6167154;28;20200;-62
2023/08/14 02:59:43;;;;;;;9.13;8.43;;;;;;;;;;6171904;28;20200;-62
2023/08/14 03:02:44;;;;;;;9.80;9.00;;;;;;;;;;6161948;28;20216;-62
2023/08/14 03:05:45;;;;;;;9.60;8.77;;;;;;;;;;6177171;28;20248;-62
2023/08/14 03:08:46;;;;;;;9.40;8.60;;;;;;;;;;6156176;28;20225;-62
2023/08/14 03:11:47;;;;;;;9.93;8.93;;;;;;;;;;6154946;28;20197;-62
2023/08/14 03:14:48;;;;;;;11.10;8.70;;;;;;;;;;6159779;28;20196;-62
2023/08/14 03:17:50;;;;;;;10.10;9.27;;;;;;;;;;6169558;28;20205;-62
2023/08/14 03:20:51;;;;;;;10.13;9.23;;;;;;;;;;6167294;28;20203;-62
2023/08/14 03:23:52;;;;;;;10.23;9.27;;;;;;;;;;6153419;28;20250;-62
2023/08/14 03:26:53;;;;;;;9.90;9.00;;;;;;;;;;6172162;28;20240;-62
2023/08/14 03:29:54;;;;;;;9.80;9.00;;;;;;;;;;6170247;28;20199;-62
2023/08/14 03:32:55;;;;;;;9.37;8.53;;;;;;;;;;6164921;28;20201;-62
2023/08/14 03:35:56;;;;;;;10.00;9.10;;;;;;;;;;6166718;28;20196;-62
2023/08/14 03:38:57;;;;;;;9.50;8.70;;;;;;;;;;6175829;28;20204;-62
2023/08/14 03:41:58;;;;;;;9.60;8.70;;;;;;;;;;6161036;28;20208;-62
2023/08/14 03:44:59;;;;;;;10.57;9.43;;;;;;;;;;6160285;28;20204;-62
2023/08/14 03:48:00;;;;;;;9.70;8.87;;;;;;;;;;6176962;28;20277;-62
2023/08/14 03:51:01;;;;;;;9.23;8.33;;;;;;;;;;6161114;28;20224;-62
2023/08/14 03:54:02;;;;;;;9.80;8.80;;;;;;;;;;6148125;28;20192;-62
2023/08/14 03:57:03;;;;;;;9.87;8.67;;;;;;;;;;6157143;28;20205;-62
2023/08/14 04:00:05;;;;;;;9.07;8.30;;;;;;;;;;6159359;28;20220;-62
2023/08/14 04:03:06;;;;;;;9.60;8.60;;;;;;;;;;6159552;28;20219;-62
2023/08/14 04:06:07;;;;;;;9.50;8.70;;;;;;;;;;6175341;28;20228;-62
2023/08/14 04:09:09;;;;;;;9.40;8.57;;;;;;;;;;6150557;28;20200;-62
2023/08/14 04:12:10;;;;;;;9.10;8.40;;;;;;;;;;6166612;28;20201;-61
2023/08/14 04:15:17;;;;;;;9.03;8.33;;;;;;;;;;6161628;28;20195;-61
2023/08/14 04:18:18;;;;;;;9.40;8.60;;;;;;;;;;6159490;28;20291;-61
2023/08/14 04:21:19;;;;;;;9.50;8.67;;;;;;;;;;6152176;28;20201;-62
2023/08/14 04:24:20;;;;;;;9.13;8.37;;;;;;;;;;6172324;28;20218;-62
2023/08/14 04:27:22;;;;;;;8.90;8.20;;;;;;;;;;6167018;28;20196;-62
2023/08/14 04:30:23;;;;;;;9.50;8.60;;;;;;;;;;6159420;28;20201;-62
2023/08/14 04:33:24;;;;;;;10.30;9.30;;;;;;;;;;6159757;28;20193;-62
2023/08/14 04:36:25;;;;;;;9.70;8.90;;;;;;;;;;6159782;28;20193;-62
2023/08/14 04:39:26;;;;;;;9.07;8.07;;;;;;;;;;6162519;28;20203;-62
2023/08/14 04:42:27;;;;;;;9.77;8.97;;;;;;;;;;6155048;28;20239;-62
2023/08/14 04:45:28;;;;;;;10.33;9.43;;;;;;;;;;6174515;28;20192;-62
2023/08/14 04:48:29;;;;;;;12.80;9.50;;;;;;;;;;6156012;28;20192;-61
2023/08/14 04:51:30;;;;;;;10.43;9.43;;;;;;;;;;6167996;28;20251;-61
2023/08/14 04:54:32;;;;;;;9.70;8.90;;;;;;;;;;6153626;28;20208;-62
2023/08/14 04:57:33;;;;;;;10.50;9.27;;;;;;;;;;6156759;28;20201;-61
2023/08/14 05:00:34;;;;;;;8.63;7.93;;;;;;;;;;6173762;28;20195;-62
2023/08/14 05:03:35;;;;;;;9.77;8.97;;;;;;;;;;6155525;28;20247;-62
2023/08/14 05:06:36;;;;;;;9.50;8.80;;;;;;;;;;6161078;28;20236;-62
2023/08/14 05:09:37;;;;;;;9.30;8.60;;;;;;;;;;6165273;28;20196;-62
2023/08/14 05:12:38;;;;;;;9.13;8.43;;;;;;;;;;6155922;28;20260;-62
2023/08/14 05:15:39;;;;;;;10.27;9.37;;;;;;;;;;6165751;28;20258;-61
2023/08/14 05:18:40;;;;;;;10.13;9.13;;;;;;;;;;6149805;28;20201;-61
2023/08/14 05:21:41;;;;;;;8.87;8.17;;;;;;;;;;6167664;28;20287;-62
2023/08/14 05:24:42;;;;;;;8.83;8.13;;;;;;;;;;6172333;28;20234;-60
2023/08/14 05:27:43;;;;;;;9.80;8.90;;;;;;;;;;6156417;28;20203;-61
2023/08/14 05:30:45;;;;;;;9.77;8.87;;;;;;;;;;6169728;28;20192;-61
2023/08/14 05:33:46;;;;;;;8.93;8.23;;;;;;;;;;6152966;28;20266;-62
2023/08/14 05:36:47;;;;;;;10.10;9.10;;;;;;;;;;6153557;28;20197;-62
2023/08/14 05:39:48;;;;;;;10.07;9.07;;;;;;;;;;6164881;28;20204;-62
2023/08/14 05:43:03;;;;;;;9.70;8.80;;;;;;;;;;6166799;28;20382;-62
2023/08/14 05:46:04;;;;;;;10.67;9.50;;;;;;;;;;6163995;28;20229;-62
2023/08/14 05:49:05;;;;;;;10.00;9.17;;;;;;;;;;6167721;28;20192;-62
2023/08/14 05:52:06;;;;;;;10.43;9.60;;;;;;;;;;6158770;28;20224;-63
2023/08/14 05:55:07;;;;;;;10.33;9.43;;;;;;;;;;6166542;28;20211;-62
2023/08/14 05:58:08;;;;;;;10.83;9.73;;;;;;;;;;6171077;28;20230;-63
2023/08/14 06:01:09;;;;;;;10.63;9.73;;;;;;;;;;6167548;28;20337;-63
2023/08/14 06:04:10;;;;;;;10.90;10.00;;;;;;;;;;6157181;28;20221;-63
2023/08/14 06:07:12;;;;;;;10.97;9.97;;;;;;;;;;6156692;28;20240;-61
2023/08/14 06:10:13;;;;;;;10.77;9.87;;;;;;;;;;6158453;28;20284;-61
2023/08/14 06:13:14;;;;;;;10.57;9.77;;;;;;;;;;6173854;28;20200;-62
2023/08/14 06:16:15;;;;;;;10.50;9.60;;;;;;;;;;6158830;28;20199;-62
2023/08/14 06:19:16;;;;;;;10.93;9.87;;;;;;;;;;6174338;28;20288;-62
2023/08/14 06:22:18;;;;;;;10.93;10.03;;;;;;;;;;6162276;28;20220;-62
2023/08/14 06:25:19;;;;;;;10.93;9.93;;;;;;;;;;6174876;28;20280;-62
2023/08/14 06:28:20;;;;;;;10.20;9.30;;;;;;;;;;6172640;28;20204;-61
2023/08/14 06:31:21;;;;;;;12.07;10.47;;;;;;;;;;6163069;28;20188;-61
2023/08/14 06:34:22;;;;;;;10.53;9.73;;;;;;;;;;6162384;28;20226;-62
2023/08/14 06:37:23;;;;;;;9.57;8.83;;;;;;;;;;6154438;28;20220;-61
2023/08/14 06:40:24;;;;;;;13.43;10.00;;;;;;;;;;6175502;28;20227;-62
2023/08/14 06:43:25;;;;;;;10.47;9.47;;;;;;;;;;6157360;28;20215;-61
2023/08/14 06:46:26;;;;;;;10.10;9.23;;;;;;;;;;6175709;28;20247;-61
2023/08/14 06:49:28;;;;;;;11.30;10.33;;;;;;;;;;6160979;28;20199;-61
2023/08/14 06:52:29;;;;;;;10.67;9.77;;;;;;;;;;6178174;28;20202;-61
2023/08/14 06:55:30;;;;;;;9.73;9.00;;;;;;;;;;6160971;28;20200;-61
2023/08/14 06:58:31;;;;;;;10.90;9.93;;;;;;;;;;6172480;28;20220;-61
2023/08/14 07:01:32;;;;;;;10.03;9.13;;;;;;;;;;6172610;28;20201;-61
2023/08/14 07:04:33;;;;;;;11.00;10.10;;;18.90;93.20;;;;;;6170920;28;20254;-61
2023/08/14 07:07:33;;;;;;;11.00;10.03;;;19.20;92.70;;;;;;6140575;28;20195;-62
2023/08/14 07:10:34;;;;;;;11.67;10.63;;;;;;;;;;6160927;28;20200;-62
2023/08/14 07:13:35;;;;;;;11.83;10.70;;;;;;;;;;6160512;28;20184;-62
2023/08/14 07:16:36;;;;;;;12.63;11.50;;;;;;;;;;6162240;28;20190;-62
2023/08/14 07:19:37;;;;;;;10.77;9.97;;;;;;;;;;6150785;28;20204;-62
2023/08/14 07:22:39;;;;;;;12.57;11.23;;;;;;;;;;6162197;28;20216;-62
2023/08/14 07:25:40;;;;;;;11.27;10.27;;;;;;;;;;6154910;28;20193;-63
2023/08/14 07:28:41;;;;;;;12.53;11.33;;;;;;;;;;6157659;28;20184;-62
2023/08/14 07:31:42;;;;;;;12.30;11.20;;;;;;;;;;6177996;28;20191;-62
2023/08/14 07:34:43;;;;;;;12.43;11.33;;;;;;;;;;6173743;28;20180;-62
2023/08/14 07:37:44;;;;;;;11.53;10.53;;;;;;;;;;6170132;28;20185;-63
2023/08/14 07:40:45;;;;;;;12.07;10.90;;;;;;;;;;6155185;28;20204;-62
2023/08/14 07:43:46;;;;;;;11.23;10.30;;;;;;;;;;6150698;28;20308;-62
2023/08/14 07:46:47;;;;;;;11.47;10.43;;;;;;;;;;6161131;28;20203;-62
2023/08/14 07:49:48;;;;;;;11.73;10.77;;;;;;;;;;6172985;28;20203;-62
2023/08/14 07:52:49;;;;;;;11.23;10.23;;;;;;;;;;6158874;28;20199;-63
2023/08/14 07:55:51;;;;;;;10.97;10.10;;;;;;;;;;6157319;28;20208;-62
2023/08/14 07:58:52;;;;;;;11.60;10.60;;;;;;;;;;6166832;28;20195;-61
2023/08/14 08:01:53;;;;;;;11.03;10.03;;;;;;;;;;6153188;28;20197;-62
2023/08/14 08:04:54;;;;;;;11.07;10.17;;;;;;;;;;6153821;28;20245;-62
2023/08/14 08:07:55;;;;;;;10.93;10.13;;;;;;;;;;6155702;28;20203;-62
2023/08/14 08:10:56;;;;;;;11.27;10.47;;;;;;;;;;6172470;28;20207;-62
2023/08/14 08:13:58;;;;;;;10.30;9.43;;;;;;;;;;6155528;28;20227;-62
2023/08/14 08:17:00;;;;;;;10.50;9.70;;;;;;;;;;6158044;28;20200;-62
2023/08/14 08:20:01;;;;;;;11.00;10.10;;;;;;;;;;6155148;28;20262;-62
2023/08/14 08:23:02;;;;;;;10.33;9.33;;;;;;;;;;6155536;28;20226;-62
2023/08/14 08:26:03;;;;;;;10.20;9.33;;;;;;;;;;6156807;28;20196;-62
2023/08/14 08:29:05;;;;;;;10.63;9.73;;;;;;;;;;6168599;28;20188;-62
2023/08/14 08:32:08;;;;;;;9.37;8.67;;;;;;;;;;6155376;28;20203;-62
2023/08/14 08:35:09;;;;;;;9.00;8.30;;;;;;;;;;6134517;29;20201;-62
2023/08/14 08:38:10;;;;;;;9.97;9.17;;;;;;;;;;6165596;28;20252;-62
2023/08/14 08:41:13;;;;;;;10.20;9.40;;;;;;;;;;6168704;28;20701;-62
2023/08/14 08:44:25;;;;;;;9.33;8.60;;;;;;;;;;6169880;28;20260;-62
2023/08/14 08:47:29;;;;;;;9.13;8.53;;;;;;;;;;6177456;28;20283;-62
2023/08/14 08:50:30;;;;;;;8.93;8.23;;;;;;;;;;6179710;28;20216;-62
2023/08/14 08:53:31;;;;;;;9.30;8.60;;;;;;;;;;6152683;28;20228;-62
2023/08/14 08:56:33;;;;;;;8.90;8.20;;;;;;;;;;6173270;28;20330;-62
2023/08/14 08:59:34;;;;;;;9.67;8.97;;;;;;;;;;6157274;28;20220;-62
2023/08/14 09:02:35;;;;;;;8.57;7.73;;;;;;;;;;6155932;28;20216;-62
2023/08/14 09:05:37;;;;;;;9.07;8.37;;;;;;;;;;6155873;28;20231;-62
2023/08/14 09:08:38;;;;;;;8.33;7.67;;;;;;;;;;6165445;28;20197;-62
2023/08/14 09:11:39;;;;;;;9.03;8.33;;;;;;;;;;6155193;28;20193;-62
2023/08/14 09:14:44;;;;;;;8.47;7.77;;;;;;;;;;6165019;28;20188;-62
2023/08/14 09:17:45;;;;;;;9.40;8.70;;;;;;;;;;6162861;28;20212;-62
2023/08/14 09:20:46;;;;;;;8.50;7.73;;;;;;;;;;6156550;28;20197;-62
2023/08/14 09:23:47;;;;;;;8.53;7.73;;;;;;;;;;6171101;28;20310;-62
2023/08/14 09:26:48;;;;;;;8.60;7.90;;;;;;;;;;6156330;28;20259;-62
2023/08/14 09:29:54;;;;;;;8.60;7.90;;;;;;;;;;6167049;28;20256;-62
2023/08/14 09:32:55;;;;;;;8.63;8.00;;;;;;;;;;6152810;28;20201;-62
2023/08/14 09:35:58;;;;;;;7.50;6.90;;;23.90;73.40;;;;;;6163407;28;20197;-61
2023/08/14 09:38:58;;;;;;;7.90;7.30;;;23.60;72.10;;;;;;6168255;28;20208;-61
2023/08/14 09:41:59;;;;;;;8.20;7.40;;;23.50;73.40;;;;;;6148765;28;20208;-61
2023/08/14 09:45:00;;;;;;;6.50;6.00;;;23.50;73.30;;;;;;6164934;28;20200;-62
2023/08/14 09:48:03;;;;;;;6.83;6.33;;;23.50;71.70;;;;;;6155217;28;20239;-62
2023/08/14 09:51:04;;;;;;;7.13;6.53;;;23.40;72.00;;;;;;6156159;28;20193;-62
2023/08/14 09:54:09;;;;;;;8.13;7.43;;;23.40;72.40;;;;;;6161149;28;20200;-62
2023/08/14 09:57:09;;;;;;;7.60;6.90;;;23.40;72.90;;;;;;6173131;28;20194;-62
2023/08/14 10:00:12;;;;;;;6.97;6.47;;;23.40;73.90;;;;;;6155149;28;20296;-61
2023/08/14 10:03:13;;;;;;;7.00;6.30;;;23.50;72.30;;;;;;6158771;28;20571;-62
2023/08/14 10:06:15;;;;;;;7.00;6.40;;;23.50;69.60;;;;;;6162624;28;20244;-62
2023/08/14 10:09:20;;;;;;;7.17;6.37;;;23.60;70.80;;;;;;6176172;28;20227;-61
2023/08/14 10:12:27;;;;;;;6.70;6.20;;;;;;;;;;6162772;28;20220;-61
2023/08/14 10:15:31;;;;;;;6.10;5.60;;;;;;;;;;6166365;28;20244;-61
2023/08/14 10:18:33;;;;;;;5.37;4.97;;;;;;;;;;6175558;28;20254;-61
2023/08/14 10:21:35;;;;;;;5.87;5.37;;;;;;;;;;6159352;28;20204;-61
2023/08/14 10:24:37;;;;;;;5.37;4.90;;;;;;;;;;6173326;28;20303;-62
2023/08/14 10:27:39;;;;;;;5.10;4.70;;;;;;;;;;6167047;28;20205;-61
2023/08/14 10:30:41;;;;;;;5.50;4.97;;;;;;;;;;6173752;28;20189;-61
2023/08/14 10:33:42;;;;;;;4.73;4.33;;;;;;;;;;6173942;28;20192;-61
2023/08/14 10:36:43;;;;;;;4.20;3.90;;;;;;;;;;6178557;28;20223;-62
2023/08/14 10:39:44;;;;;;;4.97;4.60;;;;;;;;;;6159323;28;20203;-62
2023/08/14 10:42:46;;;;;;;5.53;5.13;;;;;;;;;;6152966;28;20231;-61
2023/08/14 10:45:47;;;;;;;5.47;5.00;;;;;;;;;;6169694;28;20192;-62
2023/08/14 10:48:49;;;;;;;5.83;5.33;;;;;;;;;;6159025;28;20291;-61
2023/08/14 10:51:50;;;;;;;4.73;4.33;;;;;;;;;;6164108;28;20207;-61
2023/08/14 10:54:51;;;;;;;5.73;4.37;;;;;;;;;;6175359;28;20210;-61
2023/08/14 10:57:55;;;;;;;5.30;4.80;;;;;;;;;;6172216;28;20192;-61
2023/08/14 11:00:56;;;;;;;5.07;4.63;;;;;;;;;;6174232;28;20201;-62
2023/08/14 11:04:04;;;;;;;5.10;4.77;;;;;;;;;;6174809;28;20275;-62
2023/08/14 11:07:08;;;;;;;5.50;5.10;;;;;;;;;;6166173;28;20237;-62
2023/08/14 11:10:13;;;;;;;5.40;4.90;;;;;;;;;;6166404;28;20197;-62
2023/08/14 11:13:14;;;;;;;4.97;4.57;;;;;;;;;;6172609;28;20247;-62
2023/08/14 11:16:17;;;;;;;5.10;4.70;;;;;;;;;;6158442;28;20246;-62
2023/08/14 11:19:21;;;;;;;4.77;4.40;;;;;;;;;;6173488;28;20211;-62
2023/08/14 11:22:22;;;;;;;4.67;4.37;;;;;;;;;;6176232;28;20224;-62
2023/08/14 11:25:23;;;;;;;4.87;4.13;;;;;;;;;;6170519;28;20524;-62
2023/08/14 11:28:24;;;;;;;5.03;4.53;;;;;;;;;;6162990;28;20261;-61
2023/08/14 11:31:25;;;;;;;5.00;4.60;;;;;;;;;;6155168;28;20194;-61
2023/08/14 11:34:26;;;;;;;4.73;4.07;;;;;;;;;;6162142;28;20193;-62
2023/08/14 11:37:27;;;;;;;4.60;4.30;;;23.60;71.40;;;;;;6165168;28;20285;-62
2023/08/14 11:40:28;;;;;;;4.30;3.90;;;25.50;59.70;;;;;;6145159;28;20205;-62
2023/08/14 11:43:28;;;;;;;4.50;4.20;;;25.60;61.30;;;;;;6165836;28;20226;-62
2023/08/14 11:46:29;;;;;;;3.90;3.60;;;25.80;62.10;;;;;;6160178;28;20215;-62
2023/08/14 11:49:34;;;;;;;4.13;3.83;;;25.90;58.90;;;;;;6160162;28;20188;-62
2023/08/14 11:52:36;;;;;;;4.23;3.83;;;26.10;59.50;;;;;;6152326;28;20193;-62
2023/08/14 11:55:37;;;;;;;5.00;4.60;;;26.20;58.60;;;;;;6159262;28;20283;-62
2023/08/14 11:58:38;;;;;;;4.00;3.63;;;26.50;60.90;;;;;;6154217;28;20197;-62
2023/08/14 12:01:41;;;;;;;4.37;3.70;;;;;;;;;;6165152;28;20227;-62
2023/08/14 12:04:42;;;;;;;3.87;3.50;;;;;;;;;;6173933;28;20217;-62
2023/08/14 12:07:43;;;;;;;3.80;3.40;;;;;;;;;;6171564;28;20192;-62
2023/08/14 12:10:43;;;;;;;4.47;3.07;;;29.00;51.90;;;;;;6156365;28;20200;-62
2023/08/14 12:13:51;;;;;;;3.63;3.33;;;;;;;;;;6156801;28;20211;-62
2023/08/14 12:16:52;;;;;;;3.50;3.20;;;;;;;;;;6174979;28;20207;-62
2023/08/14 12:19:54;;;;;;;3.53;3.23;;;33.90;42.40;;;;;;6167684;28;20200;-63
2023/08/14 12:23:12;;;;;;;3.13;2.83;;;34.40;41.80;;;;;;6152792;28;20244;-63
2023/08/14 12:26:13;;;;;;;3.17;2.97;;;;;;;;;;6159192;28;20201;-63
2023/08/14 12:29:17;;;;;;;3.55;3.28;;;35.90;40.00;;;;;;6153134;28;20215;-64
2023/08/14 12:32:19;;;;;;;2.83;2.63;;;36.60;39.70;;;;;;6156506;28;20200;-63
2023/08/14 12:35:20;;;;;;;2.95;2.70;;;;;;;;;;6158977;28;20195;-65
2023/08/14 12:38:21;;;;;;;3.05;2.85;;;;;;;;;;6159649;28;20215;-64
2023/08/14 12:41:22;;;;;;;3.10;2.90;;;38.00;38.40;;;;;;6175004;28;20199;-65
2023/08/14 12:44:22;;;;;;;3.20;3.00;;;38.00;40.00;;;;;;6157080;28;20208;-64
2023/08/14 12:47:23;;;;;;;2.67;2.47;;;38.10;39.40;;;;;;6177994;28;20193;-69
2023/08/14 12:50:23;;;;;;;2.53;2.40;;;38.80;36.60;;;;;;6156773;28;20297;-67
2023/08/14 12:53:25;;;;;;;2.53;2.33;;;;;;;;;;6135583;28;20183;-67
2023/08/14 12:56:25;;;;;;;3.05;2.20;;;41.70;32.80;;;;;;6161775;28;20192;-70
2023/08/14 12:59:26;;;;;;;2.58;2.38;;;42.00;33.00;;;;;;6165105;28;20250;-70
2023/08/14 13:02:27;;;;;;;2.88;2.67;;;;;;;;;;6154595;28;20212;-70
2023/08/14 13:05:28;;;;;;;5.10;2.88;;;41.40;33.10;;;;;;6154655;28;20236;-67
2023/08/14 13:08:28;;;;;;;2.90;2.70;;;41.00;33.40;;;;;;6161879;28;20251;-67
2023/08/14 13:11:29;;;;;;;2.60;2.50;;;40.80;34.70;;;;;;6139207;28;20195;-67
2023/08/14 13:14:30;;;;;;;3.20;3.00;;;39.20;36.40;;;;;;6146425;28;20195;-67
2023/08/14 13:17:30;;;;;;;3.10;2.90;;;39.10;36.10;;;;;;6149168;28;20193;-67
2023/08/14 13:20:32;;;;;;;2.97;2.78;;;;;;;;;;6154493;28;20207;-66
2023/08/14 13:23:32;;;;;;;3.10;2.88;;;38.30;37.70;;;;;;6166757;28;20273;-67
2023/08/14 13:26:33;;;;;;;3.33;3.05;;;37.60;37.10;;;;;;6159799;28;20208;-65
2023/08/14 13:29:34;;;;;;;4.45;2.70;;;37.20;38.20;;;;;;6164263;28;20188;-65
2023/08/14 13:32:34;;;;;;;3.20;2.90;;;37.00;38.30;;;;;;6170506;28;20227;-65
2023/08/14 13:35:35;;;;;;;2.70;2.50;;;36.70;36.80;;;;;;6159830;28;20193;-65
2023/08/14 13:38:35;;;;;;;3.23;2.80;;;36.30;36.90;;;;;;6162189;28;20204;-64
2023/08/14 13:41:36;;;;;;;3.60;3.30;;;35.80;38.20;;;;;;6155685;28;20201;-65
2023/08/14 13:44:37;;;;;;;3.23;2.93;;;35.80;39.90;;;;;;6160264;28;20227;-65
2023/08/14 13:47:37;;;;;;;4.00;2.97;;;35.80;39.40;;;;;;6159549;28;20203;-65
2023/08/14 13:50:38;;;;;;;3.47;3.13;;;35.60;40.70;;;;;;6160154;28;20196;-66
2023/08/14 13:53:39;;;;;;;3.67;3.37;;;;;;;;;;6165932;28;20189;-66
2023/08/14 13:56:40;;;;;;;3.10;2.90;;;35.50;40.20;;;;;;6164954;28;20231;-65
2023/08/14 13:59:42;;;;;;;3.47;3.00;;;35.50;40.10;;;;;;6160754;28;20200;-65
2023/08/14 14:02:42;;;;;;;3.90;3.10;;;35.40;39.70;;;;;;6158730;28;20209;-65
2023/08/14 14:05:43;;;;;;;3.50;3.20;;;35.30;40.70;;;;;;6163684;28;20240;-66
2023/08/14 14:08:44;;;;;;;3.10;2.90;;;35.20;40.70;;;;;;6155829;28;20224;-65
2023/08/14 14:11:45;;;;;;;3.60;3.30;;;35.20;40.70;;;;;;6151625;28;20199;-65
2023/08/14 14:14:46;;;;;;;4.40;2.80;;;;;;;;;;6156194;28;20229;-65
2023/08/14 14:17:47;;;;;;;3.03;2.73;;;;;;;;;;6164094;28;20193;-66
2023/08/14 14:20:49;;;;;;;3.83;3.40;;;;;;;;;;6160043;28;20192;-65
2023/08/14 14:23:50;;;;;;;3.20;3.00;;;;;;;;;;6160533;28;20216;-66
2023/08/14 14:26:51;;;;;;;2.73;2.53;;;;;;;;;;6159712;28;20189;-66
2023/08/14 14:29:52;;;;;;;2.93;2.70;;;;;;;;;;6178666;28;20189;-65
2023/08/14 14:32:53;;;;;;;3.07;2.70;;;;;;;;;;6172164;28;20193;-66
2023/08/14 14:35:54;;;;;;;3.20;2.60;;;;;;;;;;6162480;28;20295;-66
2023/08/14 14:38:55;;;;;;;3.30;2.33;;;;;;;;;;6165232;28;20203;-65
2023/08/14 14:41:56;;;;;;;3.07;2.87;;;;;;;;;;6161009;28;20192;-66
2023/08/14 14:44:57;;;;;;;3.10;2.90;;;;;;;;;;6158598;28;20203;-66
2023/08/14 14:47:58;;;;;;;3.57;3.27;;;;;;;;;;6184552;28;20188;-66
2023/08/14 14:50:59;;;;;;;3.60;3.30;;;;;;;;;;6155051;28;20236;-66
2023/08/14 14:54:01;;;;;;;3.43;3.23;;;;;;;;;;6162894;28;20196;-66
2023/08/14 14:57:02;;;;;;;3.83;3.53;;;;;;;;;;6170640;28;20195;-66
2023/08/14 15:00:03;;;;;;;3.70;3.33;;;;;;;;;;6169927;28;20208;-66
2023/08/14 15:03:04;;;;;;;3.37;3.17;;;33.80;42.70;;;;;;6157433;28;20224;-66
2023/08/14 15:06:05;;;;;;;3.60;3.30;;;33.70;42.60;;;;;;6156525;28;20306;-66
2023/08/14 15:09:06;;;;;;;4.03;3.63;;;33.60;41.90;;;;;;6161563;28;20201;-66
2023/08/14 15:12:06;;;;;;;3.73;3.43;;;33.70;42.60;;;;;;6155927;28;20212;-66
2023/08/14 15:15:08;;;;;;;3.80;3.50;;;33.40;43.80;;;;;;6152108;28;20191;-66
2023/08/14 15:18:08;;;;;;;3.73;3.43;;;33.20;44.20;;;;;;6171825;28;20209;-66
2023/08/14 15:21:09;;;;;;;3.70;3.40;;;33.10;44.60;;;;;;6162990;28;20184;-66
2023/08/14 15:24:11;;;;;;;3.50;3.20;;;33.00;44.00;;;;;;6167313;28;20222;-66
2023/08/14 15:27:11;;;;;;;4.23;3.83;;;33.10;43.70;;;;;;6167771;28;20193;-66
2023/08/14 15:30:12;;;;;;;3.87;3.57;;;32.80;45.00;;;;;;6158708;28;20207;-66
2023/08/14 15:33:13;;;;;;;4.57;3.70;;;32.80;45.30;;;;;;6159879;28;20195;-66
2023/08/14 15:36:14;;;;;;;4.30;3.90;;;32.60;45.30;;;;;;6160835;28;20224;-66
2023/08/14 15:39:15;;;;;;;3.60;3.30;;;32.60;44.90;;;;;;6155319;28;20229;-66
2023/08/14 15:42:16;;;;;;;4.00;3.50;;;32.50;43.80;;;;;;6169393;28;20220;-66
2023/08/14 15:45:17;;;;;;;4.27;3.87;;;32.40;45.20;;;;;;6161438;28;20200;-66
2023/08/14 15:48:18;;;;;;;4.30;3.90;;;;;;;;;;6168477;28;20185;-66
2023/08/14 15:51:19;;;;;;;4.30;3.67;;;;;;;;;;6157177;28;20195;-66
2023/08/14 15:54:20;;;;;;;4.00;3.70;;;;;;;;;;6172814;28;20192;-66
2023/08/14 15:57:21;;;;;;;4.00;3.70;;;;;;;;;;6176257;28;20326;-66
2023/08/14 16:00:29;;;;;;;3.97;3.67;;;;;;;;;;6159575;28;20192;-66
2023/08/14 16:03:30;;;;;;;4.47;4.07;;;;;;;;;;6173031;28;20221;-65
2023/08/14 16:06:31;;;;;;;4.10;3.80;;;;;;;;;;6159746;28;20245;-63
2023/08/14 16:09:33;;;;;;;4.37;3.97;;;;;;;;;;6169515;28;20203;-64
2023/08/14 16:12:35;;;;;;;4.80;4.33;;;;;;;;;;6169988;28;20216;-65
2023/08/14 16:15:36;;;;;;;5.10;3.93;;;;;;;;;;6171844;28;20189;-67
2023/08/14 16:18:37;;;;;;;4.70;4.30;;;30.90;49.00;;;;;;6160569;28;20192;-66
2023/08/14 16:21:37;;;;;;;4.60;4.20;;;31.20;48.90;;;;;;6169638;28;20470;-67
2023/08/14 16:24:40;;;;;;;5.27;4.47;;;30.70;48.70;;;;;;6153486;28;20220;-66
2023/08/14 16:27:41;;;;;;;4.60;4.20;;;;;;;;;;6155002;28;20204;-67
2023/08/14 16:30:42;;;;;;;4.20;3.90;;;30.50;49.20;;;;;;6166271;28;20192;-67
2023/08/14 16:33:45;;;;;;;4.93;4.53;;;30.40;49.10;;;;;;6162143;28;20205;-67
2023/08/14 16:36:46;;;;;;;4.53;4.13;;;;;;;;;;6143555;28;20188;-67
2023/08/14 16:39:47;;;;;;;4.90;4.50;;;;;;;;;;6159124;28;20196;-66
2023/08/14 16:42:48;;;;;;;5.07;4.67;;;;;;;;;;6159620;28;20208;-67
2023/08/14 16:45:49;;;;;;;5.03;4.53;;;29.90;50.60;;;;;;6181247;28;20199;-67
2023/08/14 16:48:50;;;;;;;4.90;4.50;;;29.80;50.50;;;;;;6173502;28;20250;-67
2023/08/14 16:51:51;;;;;;;5.13;4.73;;;29.70;50.70;;;;;;6163856;28;20197;-67
2023/08/14 16:54:51;;;;;;;4.57;4.27;;;29.40;50.80;;;;;;6143492;28;20251;-67
2023/08/14 16:57:52;;;;;;;5.27;4.90;;;;;;;;;;6157046;28;20302;-66
2023/08/14 17:00:54;;;;;;;5.33;4.93;;;;;;;;;;6154286;28;20244;-67
2023/08/14 17:03:55;;;;;;;5.10;4.70;;;;;;;;;;6153045;28;20262;-67
2023/08/14 17:06:55;;;;;;;6.07;5.47;;;29.00;53.20;;;;;;6175442;28;20244;-67
2023/08/14 17:09:56;;;;;;;5.33;4.93;;;29.30;52.50;;;;;;6159117;28;20246;-67
2023/08/14 17:12:57;;;;;;;5.47;4.97;;;28.80;53.40;;;;;;6154983;28;20201;-67
2023/08/14 17:15:58;;;;;;;5.00;4.60;;;28.60;54.30;;;;;;6158496;28;20207;-67
2023/08/14 17:18:59;;;;;;;5.67;5.17;;;;;;;;;;6160548;28;20193;-67
2023/08/14 17:22:00;;;;;;;5.37;4.97;;;;;;;;;;6175012;28;20199;-66
2023/08/14 17:25:01;;;;;;;6.30;5.80;;;28.20;55.30;;;;;;6158497;28;20287;-65
2023/08/14 17:28:02;;;;;;;5.30;4.90;;;;;;;;;;6190272;28;20197;-65